sensor_id;sensor_type;location;lat;lon;timestamp;pressure;altitude;pressure_sealevel;temperature;humidity
22580;BME280;11456;47.030;15.396;2024-02-15T00:00:16;98212.97;;;2.26;100.00
22580;BME280;11456;47.030;15.396;2024-02-15T00:02:46;98208.69;;;2.39;100.00
22580;BME280;11456;47.030;15.396;2024-02-15T00:05:13;98212.03;;;2.27;100.00
22580;BME280;11456;47.030;15.396;2024-02-15T00:07:41;98205.06;;;2.40;100.00
22580;BME280;11456;47.030;15.396;2024-02-15T00:10:08;98211.75;;;2.48;100.00
22580;BME280;11456;47.030;15.396;2024-02-15T00:12:35;98210.47;;;2.55;100.00
22580;BME280;11456;47.030;15.396;2024-02-15T00:15:02;98217.28;;;2.59;100.00
22580;BME280;11456;47.030;15.396;2024-02-15T00:17:29;98219.97;;;2.59;100.00
22580;BME280;11456;47.030;15.396;2024-02-15T00:19:57;98220.19;;;2.70;100.00
22580;BME280;11456;47.030;15.396;2024-02-15T00:22:23;98219.78;;;2.62;100.00
22580;BME280;11456;47.030;15.396;2024-02-15T00:24:50;98219.44;;;2.68;100.00
22580;BME280;11456;47.030;15.396;2024-02-15T00:27:17;98217.50;;;2.24;100.00
22580;BME280;11456;47.030;15.396;2024-02-15T00:29:47;98218.81;;;2.33;100.00
22580;BME280;11456;47.030;15.396;2024-02-15T00:32:14;98219.94;;;2.13;100.00
22580;BME280;11456;47.030;15.396;2024-02-15T00:34:40;98216.69;;;2.08;100.00
22580;BME280;11456;47.030;15.396;2024-02-15T00:37:08;98212.56;;;2.18;100.00
22580;BME280;11456;47.030;15.396;2024-02-15T00:39:35;98205.25;;;2.37;100.00
22580;BME280;11456;47.030;15.396;2024-02-15T00:42:02;98204.41;;;2.21;100.00
22580;BME280;11456;47.030;15.396;2024-02-15T00:44:29;98199.53;;;2.29;100.00
22580;BME280;11456;47.030;15.396;2024-02-15T00:46:57;98209.88;;;2.50;100.00
22580;BME280;11456;47.030;15.396;2024-02-15T00:49:23;98217.50;;;2.40;100.00
22580;BME280;11456;47.030;15.396;2024-02-15T00:51:53;98219.50;;;2.36;100.00
22580;BME280;11456;47.030;15.396;2024-02-15T00:54:20;98211.41;;;2.54;100.00
22580;BME280;11456;47.030;15.396;2024-02-15T00:56:46;98215.34;;;2.47;100.00
22580;BME280;11456;47.030;15.396;2024-02-15T00:59:14;98220.72;;;2.15;100.00
22580;BME280;11456;47.030;15.396;2024-02-15T01:01:40;98228.41;;;1.88;100.00
22580;BME280;11456;47.030;15.396;2024-02-15T01:04:07;98243.22;;;1.77;100.00
22580;BME280;11456;47.030;15.396;2024-02-15T01:06:34;98241.09;;;1.99;100.00
22580;BME280;11456;47.030;15.396;2024-02-15T01:09:01;98235.19;;;2.25;100.00
22580;BME280;11456;47.030;15.396;2024-02-15T01:11:30;98233.06;;;2.16;100.00
22580;BME280;11456;47.030;15.396;2024-02-15T01:13:58;98231.31;;;2.31;100.00
22580;BME280;11456;47.030;15.396;2024-02-15T01:16:25;98231.16;;;2.50;100.00
22580;BME280;11456;47.030;15.396;2024-02-15T01:18:52;98220.53;;;2.34;100.00
22580;BME280;11456;47.030;15.396;2024-02-15T01:21:19;98225.28;;;2.59;100.00
22580;BME280;11456;47.030;15.396;2024-02-15T01:23:45;98215.63;;;2.72;100.00
22580;BME280;11456;47.030;15.396;2024-02-15T01:26:13;98206.16;;;2.82;100.00
22580;BME280;11456;47.030;15.396;2024-02-15T01:28:40;98209.81;;;3.09;100.00
22580;BME280;11456;47.030;15.396;2024-02-15T01:31:10;98204.81;;;3.19;100.00
22580;BME280;11456;47.030;15.396;2024-02-15T01:33:37;98199.00;;;3.41;100.00
22580;BME280;11456;47.030;15.396;2024-02-15T01:36:05;98211.91;;;3.04;100.00
22580;BME280;11456;47.030;15.396;2024-02-15T01:38:32;98215.28;;;2.78;100.00
22580;BME280;11456;47.030;15.396;2024-02-15T01:40:59;98220.66;;;2.62;100.00
22580;BME280;11456;47.030;15.396;2024-02-15T01:43:25;98223.19;;;2.64;100.00
22580;BME280;11456;47.030;15.396;2024-02-15T01:45:52;98215.81;;;2.69;100.00
22580;BME280;11456;47.030;15.396;2024-02-15T01:48:19;98220.66;;;2.62;100.00
22580;BME280;11456;47.030;15.396;2024-02-15T01:50:46;98207.25;;;2.64;100.00
22580;BME280;11456;47.030;15.396;2024-02-15T01:53:15;98205.34;;;2.66;100.00
22580;BME280;11456;47.030;15.396;2024-02-15T01:55:41;98202.91;;;2.77;100.00
22580;BME280;11456;47.030;15.396;2024-02-15T01:58:08;98198.78;;;2.87;100.00
22580;BME280;11456;47.030;15.396;2024-02-15T02:00:36;98196.50;;;2.95;100.00
22580;BME280;11456;47.030;15.396;2024-02-15T02:03:06;98191.53;;;2.89;100.00
22580;BME280;11456;47.030;15.396;2024-02-15T02:05:36;98190.19;;;2.82;100.00
22580;BME280;11456;47.030;15.396;2024-02-15T02:08:03;98185.31;;;3.04;100.00
22580;BME280;11456;47.030;15.396;2024-02-15T02:10:31;98194.44;;;3.14;100.00
22580;BME280;11456;47.030;15.396;2024-02-15T02:13:00;98183.81;;;3.29;100.00
22580;BME280;11456;47.030;15.396;2024-02-15T02:15:31;98186.44;;;3.14;100.00
22580;BME280;11456;47.030;15.396;2024-02-15T02:17:59;98182.19;;;3.12;100.00
22580;BME280;11456;47.030;15.396;2024-02-15T02:20:27;98180.56;;;3.23;100.00
22580;BME280;11456;47.030;15.396;2024-02-15T02:23:01;98193.69;;;3.12;100.00
22580;BME280;11456;47.030;15.396;2024-02-15T02:25:33;98194.16;;;3.05;100.00
22580;BME280;11456;47.030;15.396;2024-02-15T02:28:01;98194.19;;;2.75;100.00
22580;BME280;11456;47.030;15.396;2024-02-15T02:30:27;98194.53;;;2.69;100.00
22580;BME280;11456;47.030;15.396;2024-02-15T02:32:56;98196.81;;;2.61;100.00
22580;BME280;11456;47.030;15.396;2024-02-15T02:35:26;98195.44;;;2.54;100.00
22580;BME280;11456;47.030;15.396;2024-02-15T02:37:54;98194.84;;;2.78;100.00
22580;BME280;11456;47.030;15.396;2024-02-15T02:40:21;98194.25;;;2.43;100.00
22580;BME280;11456;47.030;15.396;2024-02-15T02:42:55;98187.72;;;2.79;100.00
22580;BME280;11456;47.030;15.396;2024-02-15T02:45:28;98189.66;;;2.91;100.00
22580;BME280;11456;47.030;15.396;2024-02-15T02:47:55;98196.88;;;2.89;100.00
22580;BME280;11456;47.030;15.396;2024-02-15T02:50:22;98190.75;;;2.73;100.00
22580;BME280;11456;47.030;15.396;2024-02-15T02:52:51;98195.72;;;2.79;100.00
22580;BME280;11456;47.030;15.396;2024-02-15T02:55:18;98184.34;;;2.91;100.00
22580;BME280;11456;47.030;15.396;2024-02-15T02:57:45;98176.75;;;3.28;100.00
22580;BME280;11456;47.030;15.396;2024-02-15T03:00:13;98177.91;;;3.09;100.00
22580;BME280;11456;47.030;15.396;2024-02-15T03:02:46;98172.22;;;3.30;100.00
22580;BME280;11456;47.030;15.396;2024-02-15T03:05:13;98176.19;;;3.08;100.00
22580;BME280;11456;47.030;15.396;2024-02-15T03:07:41;98177.72;;;3.27;100.00
22580;BME280;11456;47.030;15.396;2024-02-15T03:10:08;98179.44;;;3.13;100.00
22580;BME280;11456;47.030;15.396;2024-02-15T03:12:38;98182.19;;;3.40;100.00
22580;BME280;11456;47.030;15.396;2024-02-15T03:15:06;98175.41;;;3.77;100.00
22580;BME280;11456;47.030;15.396;2024-02-15T03:17:47;98178.88;;;3.51;100.00
22580;BME280;11456;47.030;15.396;2024-02-15T03:20:15;98184.94;;;3.67;100.00
22580;BME280;11456;47.030;15.396;2024-02-15T03:22:56;98178.19;;;3.47;100.00
22580;BME280;11456;47.030;15.396;2024-02-15T03:25:25;98169.16;;;3.64;100.00
22580;BME280;11456;47.030;15.396;2024-02-15T03:27:54;98169.56;;;3.44;100.00
22580;BME280;11456;47.030;15.396;2024-02-15T03:30:22;98164.97;;;3.17;100.00
22580;BME280;11456;47.030;15.396;2024-02-15T03:32:53;98166.69;;;3.18;100.00
22580;BME280;11456;47.030;15.396;2024-02-15T03:35:21;98164.31;;;3.42;100.00
22580;BME280;11456;47.030;15.396;2024-02-15T03:37:50;98167.06;;;3.41;100.00
22580;BME280;11456;47.030;15.396;2024-02-15T03:40:18;98159.28;;;3.52;100.00
22580;BME280;11456;47.030;15.396;2024-02-15T03:42:46;98169.72;;;3.55;100.00
22580;BME280;11456;47.030;15.396;2024-02-15T03:45:18;98161.63;;;3.71;100.00
22580;BME280;11456;47.030;15.396;2024-02-15T03:47:45;98164.00;;;3.61;100.00
22580;BME280;11456;47.030;15.396;2024-02-15T03:50:13;98164.88;;;3.61;100.00
22580;BME280;11456;47.030;15.396;2024-02-15T03:52:41;98159.44;;;3.20;100.00
22580;BME280;11456;47.030;15.396;2024-02-15T03:55:08;98157.56;;;3.22;100.00
22580;BME280;11456;47.030;15.396;2024-02-15T03:57:38;98169.28;;;3.20;100.00
22580;BME280;11456;47.030;15.396;2024-02-15T04:00:08;98172.38;;;3.27;100.00
22580;BME280;11456;47.030;15.396;2024-02-15T04:02:37;98170.28;;;3.46;100.00
22580;BME280;11456;47.030;15.396;2024-02-15T04:05:07;98169.47;;;3.31;100.00
22580;BME280;11456;47.030;15.396;2024-02-15T04:07:35;98168.31;;;3.35;100.00
22580;BME280;11456;47.030;15.396;2024-02-15T04:10:05;98163.19;;;4.01;100.00
22580;BME280;11456;47.030;15.396;2024-02-15T04:12:33;98157.97;;;3.86;100.00
22580;BME280;11456;47.030;15.396;2024-02-15T04:14:59;98154.97;;;4.04;100.00
22580;BME280;11456;47.030;15.396;2024-02-15T04:17:34;98154.63;;;3.96;100.00
22580;BME280;11456;47.030;15.396;2024-02-15T04:20:02;98164.38;;;3.83;100.00
22580;BME280;11456;47.030;15.396;2024-02-15T04:22:31;98167.63;;;3.60;100.00
22580;BME280;11456;47.030;15.396;2024-02-15T04:25:07;98160.41;;;3.48;100.00
22580;BME280;11456;47.030;15.396;2024-02-15T04:27:36;98165.06;;;3.58;100.00
22580;BME280;11456;47.030;15.396;2024-02-15T04:30:03;98159.28;;;3.38;100.00
22580;BME280;11456;47.030;15.396;2024-02-15T04:32:30;98162.59;;;3.55;100.00
22580;BME280;11456;47.030;15.396;2024-02-15T04:35:01;98171.53;;;3.40;100.00
22580;BME280;11456;47.030;15.396;2024-02-15T04:37:29;98183.22;;;3.09;100.00
22580;BME280;11456;47.030;15.396;2024-02-15T04:39:59;98181.06;;;3.30;100.00
22580;BME280;11456;47.030;15.396;2024-02-15T04:42:34;98176.28;;;3.49;100.00
22580;BME280;11456;47.030;15.396;2024-02-15T04:45:02;98172.38;;;3.69;100.00
22580;BME280;11456;47.030;15.396;2024-02-15T04:47:29;98169.88;;;3.80;100.00
22580;BME280;11456;47.030;15.396;2024-02-15T04:49:57;98175.63;;;3.46;100.00
22580;BME280;11456;47.030;15.396;2024-02-15T04:52:23;98176.69;;;3.43;100.00
22580;BME280;11456;47.030;15.396;2024-02-15T04:54:51;98169.13;;;3.07;100.00
22580;BME280;11456;47.030;15.396;2024-02-15T04:57:18;98168.38;;;2.91;100.00
22580;BME280;11456;47.030;15.396;2024-02-15T04:59:44;98165.47;;;3.38;100.00
22580;BME280;11456;47.030;15.396;2024-02-15T05:02:14;98168.78;;;3.56;100.00
22580;BME280;11456;47.030;15.396;2024-02-15T05:04:40;98167.06;;;3.69;100.00
22580;BME280;11456;47.030;15.396;2024-02-15T05:07:10;98161.06;;;3.66;100.00
22580;BME280;11456;47.030;15.396;2024-02-15T05:09:36;98174.50;;;3.50;100.00
22580;BME280;11456;47.030;15.396;2024-02-15T05:12:03;98171.44;;;3.56;100.00
22580;BME280;11456;47.030;15.396;2024-02-15T05:14:31;98177.41;;;3.59;100.00
22580;BME280;11456;47.030;15.396;2024-02-15T05:16:58;98179.59;;;3.67;100.00
22580;BME280;11456;47.030;15.396;2024-02-15T05:19:25;98172.09;;;3.74;100.00
22580;BME280;11456;47.030;15.396;2024-02-15T05:21:52;98177.97;;;3.79;100.00
22580;BME280;11456;47.030;15.396;2024-02-15T05:24:20;98178.50;;;3.57;100.00
22580;BME280;11456;47.030;15.396;2024-02-15T05:26:47;98170.28;;;3.74;100.00
22580;BME280;11456;47.030;15.396;2024-02-15T05:29:15;98174.03;;;3.98;100.00
22580;BME280;11456;47.030;15.396;2024-02-15T05:31:42;98174.56;;;4.03;100.00
22580;BME280;11456;47.030;15.396;2024-02-15T05:34:10;98172.09;;;4.15;100.00
22580;BME280;11456;47.030;15.396;2024-02-15T05:36:40;98176.25;;;4.19;100.00
22580;BME280;11456;47.030;15.396;2024-02-15T05:39:07;98178.38;;;4.14;100.00
22580;BME280;11456;47.030;15.396;2024-02-15T05:41:34;98167.72;;;4.14;100.00
22580;BME280;11456;47.030;15.396;2024-02-15T05:44:02;98162.38;;;4.14;100.00
22580;BME280;11456;47.030;15.396;2024-02-15T05:46:33;98161.72;;;4.10;100.00
22580;BME280;11456;47.030;15.396;2024-02-15T05:49:04;98164.38;;;4.37;100.00
22580;BME280;11456;47.030;15.396;2024-02-15T05:51:32;98161.63;;;4.38;100.00
22580;BME280;11456;47.030;15.396;2024-02-15T05:54:00;98175.84;;;4.25;100.00
22580;BME280;11456;47.030;15.396;2024-02-15T05:56:27;98181.16;;;4.39;100.00
22580;BME280;11456;47.030;15.396;2024-02-15T05:58:55;98175.75;;;4.53;100.00
22580;BME280;11456;47.030;15.396;2024-02-15T06:01:23;98179.41;;;4.65;100.00
22580;BME280;11456;47.030;15.396;2024-02-15T06:03:50;98178.34;;;4.67;100.00
22580;BME280;11456;47.030;15.396;2024-02-15T06:06:21;98185.78;;;4.62;100.00
22580;BME280;11456;47.030;15.396;2024-02-15T06:08:50;98185.31;;;4.43;100.00
22580;BME280;11456;47.030;15.396;2024-02-15T06:11:19;98181.41;;;4.22;100.00
22580;BME280;11456;47.030;15.396;2024-02-15T06:13:46;98189.31;;;4.36;100.00
22580;BME280;11456;47.030;15.396;2024-02-15T06:16:13;98196.34;;;4.10;100.00
22580;BME280;11456;47.030;15.396;2024-02-15T06:18:40;98188.97;;;4.01;100.00
22580;BME280;11456;47.030;15.396;2024-02-15T06:21:07;98194.59;;;4.23;100.00
22580;BME280;11456;47.030;15.396;2024-02-15T06:23:35;98188.53;;;4.48;100.00
22580;BME280;11456;47.030;15.396;2024-02-15T06:26:04;98195.06;;;4.57;100.00
22580;BME280;11456;47.030;15.396;2024-02-15T06:28:30;98198.41;;;4.60;100.00
22580;BME280;11456;47.030;15.396;2024-02-15T06:31:31;98198.97;;;4.78;100.00
22580;BME280;11456;47.030;15.396;2024-02-15T06:34:16;98192.41;;;5.34;100.00
22580;BME280;11456;47.030;15.396;2024-02-15T06:37:01;98205.66;;;5.23;100.00
22580;BME280;11456;47.030;15.396;2024-02-15T06:39:46;98202.31;;;4.94;100.00
22580;BME280;11456;47.030;15.396;2024-02-15T06:42:15;98204.94;;;4.81;100.00
22580;BME280;11456;47.030;15.396;2024-02-15T06:44:45;98207.63;;;4.81;100.00
22580;BME280;11456;47.030;15.396;2024-02-15T06:47:13;98202.69;;;4.75;100.00
22580;BME280;11456;47.030;15.396;2024-02-15T06:49:40;98212.50;;;4.75;100.00
22580;BME280;11456;47.030;15.396;2024-02-15T06:52:07;98205.00;;;5.19;100.00
22580;BME280;11456;47.030;15.396;2024-02-15T06:54:41;98203.00;;;5.23;100.00
22580;BME280;11456;47.030;15.396;2024-02-15T06:57:09;98204.28;;;5.55;100.00
22580;BME280;11456;47.030;15.396;2024-02-15T06:59:36;98210.91;;;5.62;100.00
22580;BME280;11456;47.030;15.396;2024-02-15T07:02:04;98210.13;;;5.86;100.00
22580;BME280;11456;47.030;15.396;2024-02-15T07:04:32;98207.44;;;5.86;100.00
22580;BME280;11456;47.030;15.396;2024-02-15T07:06:59;98201.69;;;5.92;100.00
22580;BME280;11456;47.030;15.396;2024-02-15T07:09:26;98208.06;;;6.02;100.00
22580;BME280;11456;47.030;15.396;2024-02-15T07:11:54;98215.97;;;6.03;100.00
22580;BME280;11456;47.030;15.396;2024-02-15T07:14:21;98218.97;;;6.12;100.00
22580;BME280;11456;47.030;15.396;2024-02-15T07:16:49;98216.91;;;6.52;100.00
22580;BME280;11456;47.030;15.396;2024-02-15T07:19:16;98216.78;;;6.77;100.00
22580;BME280;11456;47.030;15.396;2024-02-15T07:21:44;98220.44;;;6.76;100.00
22580;BME280;11456;47.030;15.396;2024-02-15T07:24:10;98224.41;;;6.47;100.00
22580;BME280;11456;47.030;15.396;2024-02-15T07:26:37;98216.22;;;6.61;100.00
22580;BME280;11456;47.030;15.396;2024-02-15T07:29:04;98215.69;;;7.03;100.00
22580;BME280;11456;47.030;15.396;2024-02-15T07:31:32;98211.13;;;7.28;100.00
22580;BME280;11456;47.030;15.396;2024-02-15T07:34:02;98210.56;;;7.11;100.00
22580;BME280;11456;47.030;15.396;2024-02-15T07:36:32;98203.00;;;7.51;100.00
22580;BME280;11456;47.030;15.396;2024-02-15T07:38:59;98203.53;;;8.66;95.25
22580;BME280;11456;47.030;15.396;2024-02-15T07:41:28;98194.84;;;7.97;99.07
22580;BME280;11456;47.030;15.396;2024-02-15T07:43:55;98203.63;;;7.77;100.00
22580;BME280;11456;47.030;15.396;2024-02-15T07:46:24;98201.06;;;7.76;100.00
22580;BME280;11456;47.030;15.396;2024-02-15T07:48:51;98207.53;;;7.84;100.00
22580;BME280;11456;47.030;15.396;2024-02-15T07:51:21;98198.53;;;8.94;90.84
22580;BME280;11456;47.030;15.396;2024-02-15T07:53:49;98196.41;;;8.33;94.52
22580;BME280;11456;47.030;15.396;2024-02-15T07:56:16;98193.84;;;8.21;97.91
22580;BME280;11456;47.030;15.396;2024-02-15T07:58:45;98194.31;;;8.26;95.99
22580;BME280;11456;47.030;15.396;2024-02-15T08:01:19;98178.25;;;8.03;98.96
22580;BME280;11456;47.030;15.396;2024-02-15T08:03:52;98182.16;;;8.11;99.72
22580;BME280;11456;47.030;15.396;2024-02-15T08:06:21;98185.28;;;8.49;99.74
22580;BME280;11456;47.030;15.396;2024-02-15T08:08:50;98182.53;;;8.06;99.67
22580;BME280;11456;47.030;15.396;2024-02-15T08:11:19;98188.72;;;8.18;100.00
22580;BME280;11456;47.030;15.396;2024-02-15T08:13:50;98185.44;;;8.36;98.57
22580;BME280;11456;47.030;15.396;2024-02-15T08:16:18;98187.22;;;8.47;99.13
22580;BME280;11456;47.030;15.396;2024-02-15T08:18:45;98185.00;;;8.52;96.22
22580;BME280;11456;47.030;15.396;2024-02-15T08:21:15;98170.97;;;9.33;90.20
22580;BME280;11456;47.030;15.396;2024-02-15T08:23:42;98170.09;;;9.84;83.09
22580;BME280;11456;47.030;15.396;2024-02-15T08:26:09;98174.97;;;9.18;81.22
22580;BME280;11456;47.030;15.396;2024-02-15T08:28:39;98173.81;;;9.41;84.24
22580;BME280;11456;47.030;15.396;2024-02-15T08:31:05;98175.72;;;9.81;78.92
22580;BME280;11456;47.030;15.396;2024-02-15T08:33:34;98180.81;;;9.74;80.97
22580;BME280;11456;47.030;15.396;2024-02-15T08:36:01;98178.00;;;10.56;75.99
22580;BME280;11456;47.030;15.396;2024-02-15T08:38:29;98182.84;;;11.00;73.21
22580;BME280;11456;47.030;15.396;2024-02-15T08:40:55;98177.28;;;10.82;73.53
22580;BME280;11456;47.030;15.396;2024-02-15T08:43:22;98183.03;;;10.30;74.35
22580;BME280;11456;47.030;15.396;2024-02-15T08:45:49;98187.09;;;10.93;74.04
22580;BME280;11456;47.030;15.396;2024-02-15T08:48:17;98174.84;;;11.27;70.01
22580;BME280;11456;47.030;15.396;2024-02-15T08:50:44;98183.44;;;11.79;67.19
22580;BME280;11456;47.030;15.396;2024-02-15T08:53:12;98176.69;;;12.02;60.16
22580;BME280;11456;47.030;15.396;2024-02-15T08:55:41;98172.84;;;11.49;61.36
22580;BME280;11456;47.030;15.396;2024-02-15T08:58:08;98168.28;;;12.05;65.64
22580;BME280;11456;47.030;15.396;2024-02-15T09:00:36;98177.38;;;12.32;59.09
22580;BME280;11456;47.030;15.396;2024-02-15T09:03:04;98172.88;;;12.23;60.96
22580;BME280;11456;47.030;15.396;2024-02-15T09:05:31;98168.84;;;11.53;62.04
22580;BME280;11456;47.030;15.396;2024-02-15T09:07:57;98174.00;;;11.93;64.06
22580;BME280;11456;47.030;15.396;2024-02-15T09:10:24;98167.59;;;14.15;58.12
22580;BME280;11456;47.030;15.396;2024-02-15T09:12:52;98159.13;;;14.43;54.13
22580;BME280;11456;47.030;15.396;2024-02-15T09:15:19;98159.31;;;14.08;54.09
22580;BME280;11456;47.030;15.396;2024-02-15T09:17:46;98151.38;;;13.29;55.02
22580;BME280;11456;47.030;15.396;2024-02-15T09:20:15;98156.56;;;12.42;58.23
22580;BME280;11456;47.030;15.396;2024-02-15T09:22:50;98153.16;;;13.46;56.07
22580;BME280;11456;47.030;15.396;2024-02-15T09:25:17;98152.44;;;14.30;51.80
22580;BME280;11456;47.030;15.396;2024-02-15T09:27:45;98152.47;;;15.04;49.60
22580;BME280;11456;47.030;15.396;2024-02-15T09:30:15;98154.97;;;14.23;51.18
22580;BME280;11456;47.030;15.396;2024-02-15T09:32:44;98155.19;;;13.70;52.99
22580;BME280;11456;47.030;15.396;2024-02-15T09:35:12;98148.72;;;13.89;52.42
22580;BME280;11456;47.030;15.396;2024-02-15T09:37:45;98146.59;;;13.23;52.59
22580;BME280;11456;47.030;15.396;2024-02-15T09:40:12;98140.28;;;13.40;54.01
22580;BME280;11456;47.030;15.396;2024-02-15T09:42:39;98156.50;;;13.40;52.65
22580;BME280;11456;47.030;15.396;2024-02-15T09:45:08;98155.72;;;13.48;52.45
22580;BME280;11456;47.030;15.396;2024-02-15T09:47:42;98156.13;;;13.35;52.26
22580;BME280;11456;47.030;15.396;2024-02-15T09:50:11;98152.88;;;13.49;50.21
22580;BME280;11456;47.030;15.396;2024-02-15T09:52:43;98152.75;;;12.98;51.47
22580;BME280;11456;47.030;15.396;2024-02-15T09:55:10;98141.94;;;12.98;52.13
22580;BME280;11456;47.030;15.396;2024-02-15T09:57:42;98153.28;;;13.37;50.95
22580;BME280;11456;47.030;15.396;2024-02-15T10:00:10;98147.75;;;13.46;50.98
22580;BME280;11456;47.030;15.396;2024-02-15T10:02:43;98149.22;;;12.79;51.71
22580;BME280;11456;47.030;15.396;2024-02-15T10:05:13;98141.78;;;12.46;54.80
22580;BME280;11456;47.030;15.396;2024-02-15T10:07:40;98139.00;;;13.52;53.73
22580;BME280;11456;47.030;15.396;2024-02-15T10:10:14;98139.00;;;12.91;52.90
22580;BME280;11456;47.030;15.396;2024-02-15T10:12:43;98132.34;;;13.21;51.66
22580;BME280;11456;47.030;15.396;2024-02-15T10:15:35;98147.66;;;12.95;53.04
22580;BME280;11456;47.030;15.396;2024-02-15T10:18:04;98130.94;;;13.60;51.50
22580;BME280;11456;47.030;15.396;2024-02-15T10:20:31;98129.59;;;13.64;51.89
22580;BME280;11456;47.030;15.396;2024-02-15T10:25:36;98130.56;;;12.94;54.78
22580;BME280;11456;47.030;15.396;2024-02-15T10:28:07;98122.31;;;13.57;52.56
22580;BME280;11456;47.030;15.396;2024-02-15T10:30:36;98122.25;;;13.23;53.23
22580;BME280;11456;47.030;15.396;2024-02-15T10:33:03;98112.34;;;13.14;55.62
22580;BME280;11456;47.030;15.396;2024-02-15T10:35:31;98126.28;;;12.66;58.95
22580;BME280;11456;47.030;15.396;2024-02-15T10:38:11;98129.41;;;12.61;61.60
22580;BME280;11456;47.030;15.396;2024-02-15T10:40:42;98125.41;;;12.65;61.60
22580;BME280;11456;47.030;15.396;2024-02-15T10:43:10;98123.16;;;13.14;59.21
22580;BME280;11456;47.030;15.396;2024-02-15T10:45:40;98126.72;;;12.61;62.38
22580;BME280;11456;47.030;15.396;2024-02-15T10:48:09;98125.50;;;12.73;61.46
22580;BME280;11456;47.030;15.396;2024-02-15T10:50:40;98120.84;;;12.83;62.92
22580;BME280;11456;47.030;15.396;2024-02-15T10:53:27;98118.75;;;12.42;63.08
22580;BME280;11456;47.030;15.396;2024-02-15T10:56:27;98106.59;;;12.73;61.10
22580;BME280;11456;47.030;15.396;2024-02-15T10:59:12;98104.63;;;12.83;61.86
22580;BME280;11456;47.030;15.396;2024-02-15T11:01:42;98092.94;;;13.01;61.39
22580;BME280;11456;47.030;15.396;2024-02-15T11:04:15;98103.16;;;13.50;59.26
22580;BME280;11456;47.030;15.396;2024-02-15T11:06:43;98091.25;;;13.69;57.68
22580;BME280;11456;47.030;15.396;2024-02-15T11:09:11;98085.81;;;14.03;54.58
22580;BME280;11456;47.030;15.396;2024-02-15T11:11:39;98087.22;;;13.73;54.64
22580;BME280;11456;47.030;15.396;2024-02-15T11:14:26;98074.66;;;14.06;54.99
22580;BME280;11456;47.030;15.396;2024-02-15T11:16:56;98072.41;;;14.43;53.60
22580;BME280;11456;47.030;15.396;2024-02-15T11:19:56;98066.00;;;14.69;50.58
22580;BME280;11456;47.030;15.396;2024-02-15T11:22:23;98068.03;;;14.67;50.50
22580;BME280;11456;47.030;15.396;2024-02-15T11:24:52;98070.00;;;14.32;50.52
22580;BME280;11456;47.030;15.396;2024-02-15T11:27:29;98073.53;;;14.25;48.57
22580;BME280;11456;47.030;15.396;2024-02-15T11:29:57;98063.81;;;14.06;50.88
22580;BME280;11456;47.030;15.396;2024-02-15T11:32:48;98063.75;;;13.90;52.18
22580;BME280;11456;47.030;15.396;2024-02-15T11:35:25;98059.69;;;13.86;52.16
22580;BME280;11456;47.030;15.396;2024-02-15T11:37:56;98066.56;;;14.14;50.73
22580;BME280;11456;47.030;15.396;2024-02-15T11:40:27;98057.69;;;13.96;51.08
22580;BME280;11456;47.030;15.396;2024-02-15T11:43:01;98061.34;;;13.79;51.31
22580;BME280;11456;47.030;15.396;2024-02-15T11:45:30;98058.13;;;14.25;50.68
22580;BME280;11456;47.030;15.396;2024-02-15T11:48:01;98056.72;;;14.05;50.79
22580;BME280;11456;47.030;15.396;2024-02-15T11:50:34;98058.03;;;13.93;51.92
22580;BME280;11456;47.030;15.396;2024-02-15T11:53:04;98064.53;;;14.16;52.41
22580;BME280;11456;47.030;15.396;2024-02-15T11:55:39;98057.53;;;13.63;52.94
22580;BME280;11456;47.030;15.396;2024-02-15T11:58:08;98062.13;;;13.63;54.40
22580;BME280;11456;47.030;15.396;2024-02-15T12:00:38;98057.38;;;13.99;53.07
22580;BME280;11456;47.030;15.396;2024-02-15T12:03:24;98056.38;;;13.66;53.52
22580;BME280;11456;47.030;15.396;2024-02-15T12:06:27;98053.56;;;13.84;53.99
22580;BME280;11456;47.030;15.396;2024-02-15T12:09:17;98047.34;;;13.57;53.92
22580;BME280;11456;47.030;15.396;2024-02-15T12:12:03;98045.69;;;13.56;55.83
22580;BME280;11456;47.030;15.396;2024-02-15T12:14:48;98046.28;;;14.34;52.76
22580;BME280;11456;47.030;15.396;2024-02-15T12:17:50;98036.88;;;14.95;50.39
22580;BME280;11456;47.030;15.396;2024-02-15T12:20:35;98044.88;;;14.06;53.31
22580;BME280;11456;47.030;15.396;2024-02-15T12:23:02;98039.41;;;13.98;53.90
22580;BME280;11456;47.030;15.396;2024-02-15T12:25:30;98039.44;;;14.06;53.86
22580;BME280;11456;47.030;15.396;2024-02-15T12:28:00;98040.44;;;13.97;53.60
22580;BME280;11456;47.030;15.396;2024-02-15T12:30:33;98037.06;;;14.03;53.05
22580;BME280;11456;47.030;15.396;2024-02-15T12:33:13;98037.72;;;13.89;51.80
22580;BME280;11456;47.030;15.396;2024-02-15T12:35:46;98035.84;;;14.80;50.88
22580;BME280;11456;47.030;15.396;2024-02-15T12:38:13;98033.78;;;14.33;51.12
22580;BME280;11456;47.030;15.396;2024-02-15T12:40:44;98023.25;;;14.30;51.94
22580;BME280;11456;47.030;15.396;2024-02-15T12:43:15;98019.59;;;14.64;51.21
22580;BME280;11456;47.030;15.396;2024-02-15T12:45:42;98019.78;;;14.04;50.93
22580;BME280;11456;47.030;15.396;2024-02-15T12:48:09;98024.69;;;13.92;50.76
22580;BME280;11456;47.030;15.396;2024-02-15T12:50:37;98012.41;;;14.14;49.81
22580;BME280;11456;47.030;15.396;2024-02-15T12:53:04;98007.06;;;14.47;46.64
22580;BME280;11456;47.030;15.396;2024-02-15T12:55:34;98006.03;;;13.81;48.14
22580;BME280;11456;47.030;15.396;2024-02-15T12:58:14;98004.91;;;14.00;48.16
22580;BME280;11456;47.030;15.396;2024-02-15T13:00:42;97998.78;;;13.98;48.43
22580;BME280;11456;47.030;15.396;2024-02-15T13:03:11;97998.47;;;14.09;48.92
22580;BME280;11456;47.030;15.396;2024-02-15T13:05:39;97996.72;;;13.76;49.76